createdAt,value
2018-10-11T00:00:40.000Z,51.971
2018-10-11T00:10:39.000Z,51.761
2018-10-11T00:20:39.000Z,51.887
2018-10-11T00:30:39.000Z,51.915
2018-10-11T00:40:40.000Z,51.966
2018-10-11T00:50:40.000Z,51.928
2018-10-11T01:00:40.000Z,51.925
2018-10-11T01:10:41.000Z,51.92
2018-10-11T01:20:40.000Z,51.949
2018-10-11T01:30:40.000Z,51.88
2018-10-11T01:40:40.000Z,51.962
2018-10-11T01:50:40.000Z,51.97
2018-10-11T02:00:40.000Z,52.108
2018-10-11T02:10:40.000Z,52.047
2018-10-11T02:20:40.000Z,52.065
2018-10-11T02:30:40.000Z,52.062
2018-10-11T02:40:40.000Z,52.07
2018-10-11T02:50:40.000Z,52.164
2018-10-11T03:00:40.000Z,52.127
2018-10-11T03:10:40.000Z,52.168
2018-10-11T03:20:40.000Z,52.217
2018-10-11T03:30:40.000Z,52.043
2018-10-11T03:40:40.000Z,52.051
2018-10-11T03:50:40.000Z,52.079
2018-10-11T04:00:40.000Z,52.001
2018-10-11T04:10:40.000Z,52.061
2018-10-11T04:20:40.000Z,52.059
2018-10-11T04:40:40.000Z,51.988
2018-10-11T04:50:40.000Z,52.015
2018-10-11T05:00:40.000Z,51.797
2018-10-11T05:10:40.000Z,51.849
2018-10-11T05:20:40.000Z,51.791
2018-10-11T05:30:40.000Z,52.024
2018-10-11T05:40:40.000Z,52.037
2018-10-11T05:50:40.000Z,52.296
2018-10-11T06:00:40.000Z,52.326
2018-10-11T06:10:40.000Z,52.225
2018-10-11T06:20:40.000Z,52.221
2018-10-11T06:30:40.000Z,52.142
2018-10-11T06:40:40.000Z,52.152
2018-10-11T06:50:40.000Z,52.086
2018-10-11T07:00:40.000Z,52.12
2018-10-11T07:10:40.000Z,52.024
2018-10-11T07:20:40.000Z,52.186
2018-10-11T07:30:40.000Z,52.427
2018-10-11T07:40:40.000Z,52.314
2018-10-11T07:50:40.000Z,52.997
2018-10-11T08:00:40.000Z,52.492
2018-10-11T08:10:40.000Z,52.531
2018-10-11T08:20:40.000Z,52.537
2018-10-11T08:30:40.000Z,52.5
2018-10-11T08:40:41.000Z,52.431
2018-10-11T08:50:43.000Z,52.33
2018-10-11T09:00:41.000Z,52.174
2018-10-11T09:10:41.000Z,52.018
2018-10-11T09:20:41.000Z,51.796
2018-10-11T09:30:41.000Z,51.516
2018-10-11T09:50:41.000Z,50.722
2018-10-11T10:00:41.000Z,50.401
2018-10-11T10:10:41.000Z,50.148
2018-10-11T10:20:41.000Z,49.992
2018-10-11T10:30:41.000Z,49.598
2018-10-11T10:40:41.000Z,49.523
2018-10-11T10:50:41.000Z,49.273
2018-10-11T11:00:41.000Z,49.151
2018-10-11T11:10:41.000Z,49.123
2018-10-11T11:20:41.000Z,49.263
2018-10-11T11:30:41.000Z,48.924
2018-10-11T11:40:41.000Z,49.106
2018-10-11T11:50:41.000Z,49.191
2018-10-11T12:00:41.000Z,49.021
2018-10-11T12:10:41.000Z,49.084
2018-10-11T12:20:41.000Z,49.149
2018-10-11T12:30:41.000Z,48.948
2018-10-11T12:40:42.000Z,49.065
2018-10-11T12:50:41.000Z,49.075
2018-10-11T13:00:41.000Z,49.16
2018-10-11T13:10:41.000Z,49.278
2018-10-11T13:20:41.000Z,49.171
2018-10-11T13:30:41.000Z,49.107
2018-10-11T13:40:41.000Z,49.384
2018-10-11T13:50:41.000Z,49.364
2018-10-11T14:00:41.000Z,49.3
2018-10-11T14:10:41.000Z,49.399
2018-10-11T14:20:41.000Z,49.441
2018-10-11T14:30:41.000Z,49.397
2018-10-11T14:40:42.000Z,49.333
2018-10-11T14:50:41.000Z,49.289
2018-10-11T15:00:41.000Z,49.45
2018-10-11T15:10:41.000Z,49.544
2018-10-11T15:20:41.000Z,49.543
2018-10-11T15:30:41.000Z,49.576
2018-10-11T15:40:41.000Z,49.608
2018-10-11T15:50:41.000Z,49.595
2018-10-11T16:00:41.000Z,49.646
2018-10-11T16:10:41.000Z,49.741
2018-10-11T16:20:41.000Z,49.718
2018-10-11T16:30:41.000Z,49.552
2018-10-11T16:40:41.000Z,49.828
2018-10-11T16:50:41.000Z,49.062
2018-10-11T17:00:41.000Z,50.018
2018-10-11T17:10:41.000Z,50.113
2018-10-11T17:20:41.000Z,50.321
2018-10-11T17:30:42.000Z,50.41
2018-10-11T17:40:42.000Z,50.563
2018-10-11T17:50:42.000Z,50.974
2018-10-11T18:00:42.000Z,50.893
2018-10-11T18:10:42.000Z,50.946
2018-10-11T18:20:42.000Z,51.109
2018-10-11T18:30:42.000Z,51.122
2018-10-11T18:40:42.000Z,51.166
2018-10-11T18:50:42.000Z,51.135
2018-10-11T19:00:42.000Z,51.488
2018-10-11T19:10:42.000Z,51.375
2018-10-11T19:20:42.000Z,51.342
2018-10-11T19:30:43.000Z,51.403
2018-10-11T19:40:42.000Z,51.583
2018-10-11T19:50:42.000Z,51.286
2018-10-11T20:00:42.000Z,51.35
2018-10-11T20:10:42.000Z,51.367
2018-10-11T20:20:42.000Z,51.385
2018-10-11T20:30:42.000Z,51.341
2018-10-11T20:40:42.000Z,51.338
2018-10-11T20:50:42.000Z,51.346
2018-10-11T21:00:42.000Z,51.386
2018-10-11T21:10:42.000Z,51.535
2018-10-11T21:20:42.000Z,51.575
2018-10-11T21:30:42.000Z,51.573
2018-10-11T21:40:42.000Z,51.591
2018-10-11T21:50:42.000Z,51.611
2018-10-11T22:00:42.000Z,51.642
2018-10-11T22:10:42.000Z,51.627
2018-10-11T22:20:42.000Z,51.667
2018-10-11T22:30:42.000Z,51.751
2018-10-11T22:40:42.000Z,51.802
2018-10-11T22:50:42.000Z,51.842
2018-10-11T23:00:42.000Z,51.874
2018-10-11T23:10:42.000Z,51.947
2018-10-11T23:20:42.000Z,51.978
2018-10-11T23:30:42.000Z,52.008
2018-10-11T23:40:42.000Z,52.015
2018-10-11T23:50:42.000Z,52.067
